AerodromSadržaj METAR izveštaja
LYBEMETAR LYBE 211830Z 18005KT 9999 FEW040 20/14 Q1015 NOSIG=
LYBTMETAR LYBT 211830Z 14006KT 9999 SCT040 19/14 Q1014 RETS NOSIG=
LYKVMETAR LYKV 211830Z VRB02KT 9999 SCT050 16/15 Q1015 NOSIG=
LYNIMETAR LYNI 211830Z VRB03KT 9999 SCT040 19/13 Q1015 NOSIG=
LYVRMETAR LYVR 211830Z 14020KT CAVOK 21/14 Q1015 NOSIG=
LYUZMETAR LYUZ 211830Z AUTO VRB02KT 7000 SCT006/// BKN069/// 13/13 Q1017=
LYPGMETAR LYPG 211830Z 34009KT 9999 FEW050 22/12 Q1011 NOSIG=
LYTVMETAR LYTV 211830Z VRB02KT CAVOK 20/16 Q1011 NOSIG=

Podaci učitani u: 2018-05-21 18:49:02 UTC

METAR, TAF, AIRMET, GAMET, SIGMET

Važna napomena: MET infоrmаciје nа оvim web strаnicаmа imајu infоrmаtivni kаrаktеr, nаmenjene su isključivo vаzduhоplоvnim kоrisnicima, nе smејu sе kоristiti zа bilо kоје kоmеrciјаlnе svrhе, i nе zаmеnjuјu dоkumеntаciјu zа lеt.